Flight Track Log - Related Links

Times and Time Zones

All times are in EDT time to prevent confusion due to time zone crossing. See the UPS3608 flight status page for this flight to view local times or setup timezone preferences in your user account.

Time Position Orientation Groundspeed Altitude Reporting Facility
EDT Latitude Longitude Course Direction KTS MPH feet Rate Location/Type
Sat 08:06:17 AM 38.1700 -85.7430 159° South 157 181 200  Level FlightAware ADS-B
Sat 08:06:42 AM 38.1510 -85.7370 166° South 161 185 1,600 2,291 Climbing FlightAware ADS-B
Sat 08:07:12 AM 38.1270 -85.7320 171° South 206 237 2,300 764 Climbing FlightAware ADS-B
Sat 08:07:37 AM 38.1050 -85.7300 176° South 206 237 2,300 2,618 Level FlightAware ADS-B
Sat 08:08:07 AM 38.0710 -85.7510 206° Southwest 252 290 4,700 4,000 Climbing FlightAware ADS-B
Sat 08:08:22 AM 38.0640 -85.7690 244° Southwest 258 297 5,300 3,200 Climbing FlightAware ADS-B
Sat 08:08:37 AM 38.0650 -85.7950 273° West 265 305 6,300 3,600 Climbing FlightAware ADS-B
Sat 08:09:07 AM 38.0730 -85.8400 283° West 264 304 8,000 3,055 Climbing FlightAware ADS-B
Sat 08:09:32 AM 38.0870 -85.8710 300° West 277 319 9,100 2,850 Climbing FlightAware ADS-B
Sat 08:09:47 AM 38.1050 -85.8850 329° Northwest 288 331 9,900 2,073 Climbing FlightAware ADS-B
Sat 08:10:27 AM 38.1620 -85.8970 351° North 335 386 11,000 2,188 Climbing FlightAware ADS-B
Sat 08:11:12 AM 38.2340 -85.9100 352° North 370 426 13,000 3,176 Climbing FlightAware ADS-B
Sat 08:11:52 AM 38.3050 -85.9240 351° North 383 441 15,500 3,882 Climbing FlightAware ADS-B
Sat 08:12:37 AM 38.3850 -85.9390 352° North 387 445 18,500 3,600 Climbing FlightAware ADS-B
Sat 08:13:17 AM 38.4550 -85.9530 351° North 398 458 20,600 2,925 Climbing FlightAware ADS-B
Sat 08:13:57 AM 38.5290 -85.9670 352° North 413 475 22,400 2,612 Climbing FlightAware ADS-B
Sat 08:14:42 AM 38.6220 -85.9840 352° North 431 496 24,300 1,835 Climbing FlightAware ADS-B
Sat 08:15:22 AM 38.6940 -85.9980 351° North 382 440 25,000 494 Climbing FlightAware ADS-B
Sat 08:16:07 AM 38.7660 -86.0100 353° North 361 415 25,000  Level FlightAware ADS-B
Sat 08:16:47 AM 38.8370 -86.0020 North 367 422 25,000  Level FlightAware ADS-B
Sat 08:17:27 AM 38.9050 -85.9890 North 371 427 25,000  Level FlightAware ADS-B
Sat 08:18:07 AM 38.9690 -85.9760 North 373 429 25,000  Level FlightAware ADS-B
Sat 08:18:52 AM 39.0520 -85.9600 North 374 430 25,000  Level FlightAware ADS-B
Sat 08:19:42 AM 39.1320 -85.9450 North 378 435 25,000  Level FlightAware ADS-B
Sat 08:20:42 AM 39.2450 -85.9240 North 413 475 25,000  Level FlightAware ADS-B
Sat 08:21:27 AM 39.3350 -85.9060 North 411 473 25,000  Level FlightAware ADS-B
Sat 08:22:07 AM 39.4150 -85.8910 North 410 472 25,000  Level FlightAware ADS-B
Sat 08:22:47 AM 39.4880 -85.8770 North 408 470 25,000  Level FlightAware ADS-B
Sat 08:23:32 AM 39.5720 -85.8600 North 403 464 25,000  Level FlightAware ADS-B
Sat 08:24:12 AM 39.6470 -85.8460 North 401 461 25,000  Level FlightAware ADS-B
Sat 08:24:57 AM 39.7230 -85.8310 North 399 459 25,000  Level FlightAware ADS-B
Sat 08:25:37 AM 39.8030 -85.8150 North 398 458 25,000  Level FlightAware ADS-B
Sat 08:26:22 AM 39.8830 -85.8000 North 397 457 25,000  Level FlightAware ADS-B
Sat 08:26:57 AM 39.9410 -85.7880 North 395 455 25,000  Level FlightAware ADS-B
Sat 08:27:42 AM 40.0280 -85.7710 North 394 453 25,000  Level FlightAware ADS-B
Sat 08:28:27 AM 40.1120 -85.7550 North 394 453 25,000 -212 Level FlightAware ADS-B
Sat 08:29:07 AM 40.1820 -85.7410 North 393 452 24,700 -706 Descending FlightAware ADS-B
Sat 08:29:52 AM 40.2620 -85.7250 North 389 448 24,000 -494 Descending FlightAware ADS-B
Sat 08:30:32 AM 40.3320 -85.7110 North 391 450 24,000  Level FlightAware ADS-B
Sat 08:31:12 AM 40.4060 -85.6960 North 392 451 24,000  Level FlightAware ADS-B
Sat 08:31:47 AM 40.4670 -85.6850 North 392 451 24,000  Level FlightAware ADS-B
Sat 08:32:37 AM 40.5580 -85.7030 351° North 386 444 24,000  Level FlightAware ADS-B
Sat 08:33:17 AM 40.6290 -85.7310 343° North 387 445 24,000 -424 Level FlightAware ADS-B
Sat 08:34:02 AM 40.7070 -85.7620 343° North 397 457 23,400 -1,129 Descending FlightAware ADS-B
Sat 08:34:42 AM 40.7670 -85.8150 326° Northwest 400 460 22,400 -1,129 Descending FlightAware ADS-B
Sat 08:35:27 AM 40.8120 -85.9100 302° West 399 459 21,800 -776 Descending FlightAware ADS-B
Sat 08:36:07 AM 40.8480 -85.9910 300° West 398 458 21,300 -600 Descending FlightAware ADS-B
Sat 08:36:47 AM 40.8840 -86.0740 300° West 395 455 21,000 -212 Descending FlightAware ADS-B
Sat 08:37:32 AM 40.9250 -86.1690 300° West 396 456 21,000  Level FlightAware ADS-B
Sat 08:38:12 AM 40.9620 -86.2540 300° West 397 457 21,000  Level FlightAware ADS-B
Sat 08:38:57 AM 41.0040 -86.3510 300° West 400 460 21,000  Level FlightAware ADS-B
Sat 08:39:37 AM 41.0410 -86.4370 300° West 400 460 21,000  Level FlightAware ADS-B
Sat 08:40:17 AM 41.0780 -86.5230 300° West 402 463 21,000 -71 Level FlightAware ADS-B
Sat 08:41:02 AM 41.1190 -86.6180 300° West 402 463 20,900 -918 Descending FlightAware ADS-B
Sat 08:41:42 AM 41.1550 -86.7000 300° West 394 453 19,700 -2,118 Descending FlightAware ADS-B
Sat 08:42:27 AM 41.1960 -86.7960 300° West 389 448 17,900 -2,471 Descending FlightAware ADS-B
Sat 08:43:07 AM 41.2330 -86.8830 300° West 387 445 16,200 -2,329 Descending FlightAware ADS-B
Sat 08:43:52 AM 41.2710 -86.9730 299° West 381 438 14,600 -2,175 Descending FlightAware ADS-B
Sat 08:44:27 AM 41.3010 -87.0450 299° West 375 432 13,300 -2,188 Descending FlightAware ADS-B
Sat 08:45:17 AM 41.3440 -87.1450 300° West 367 422 11,500 -1,733 Descending FlightAware ADS-B
Sat 08:45:57 AM 41.3840 -87.2150 307° West 359 413 10,700 -565 Descending FlightAware ADS-B
Sat 08:46:42 AM 41.4380 -87.2820 317° Northwest 354 407 10,700  Level FlightAware ADS-B
Sat 08:47:22 AM 41.4900 -87.3430 319° Northwest 355 409 10,700  Level FlightAware ADS-B
Sat 08:48:02 AM 41.5400 -87.4000 320° Northwest 355 409 10,700  Level FlightAware ADS-B
Sat 08:48:47 AM 41.5960 -87.4590 322° Northwest 356 410 10,700  Level FlightAware ADS-B
Sat 08:49:27 AM 41.6480 -87.5170 320° Northwest 357 411 10,700  Level FlightAware ADS-B
Sat 08:50:07 AM 41.6980 -87.5740 320° Northwest 358 412 10,700  Level FlightAware ADS-B
Sat 08:50:52 AM 41.7570 -87.6410 320° Northwest 360 414 10,700 -71 Level FlightAware ADS-B
Sat 08:51:32 AM 41.8070 -87.6970 320° Northwest 345 397 10,600 -424 Descending FlightAware ADS-B
Sat 08:52:17 AM 41.8540 -87.7580 316° Northwest 294 338 10,100 -1,200 Descending FlightAware ADS-B
Sat 08:52:42 AM 41.8770 -87.7940 311° West 292 336 9,200 -2,100 Descending FlightAware ADS-B
Sat 08:52:57 AM 41.8830 -87.8190 288° West 291 335 8,700 -1,600 Descending FlightAware ADS-B
Sat 08:53:27 AM 41.8850 -87.8730 273° West 286 329 8,000 -1,309 Descending FlightAware ADS-B
Sat 08:53:52 AM 41.8850 -87.9180 270° West 281 323 7,500 -1,050 Descending FlightAware ADS-B
Sat 08:54:07 AM 41.8850 -87.9420 270° West 277 319 7,300 -667 Descending FlightAware ADS-B
Sat 08:54:37 AM 41.8850 -87.9880 270° West 260 299 7,000 -764 Descending FlightAware ADS-B
Sat 08:55:02 AM 41.8870 -88.0330 273° West 245 282 6,600 -1,200 Descending FlightAware ADS-B
Sat 08:55:32 AM 41.8940 -88.0750 283° West 229 264 5,900 -1,527 Descending FlightAware ADS-B
Sat 08:55:57 AM 41.9000 -88.1080 284° West 223 257 5,200 -1,636 Descending FlightAware ADS-B
Sat 08:56:27 AM 41.9150 -88.1420 301° West 224 258 4,400 -1,467 Descending FlightAware ADS-B
Sat 08:56:42 AM 41.9310 -88.1480 344° North 207 238 4,100 -900 Descending FlightAware ADS-B
Sat 08:57:07 AM 41.9530 -88.1510 354° North 201 231 3,800 -873 Descending FlightAware ADS-B
Sat 08:57:37 AM 41.9730 -88.1310 37° Northeast 181 208 3,300 -873 Descending FlightAware ADS-B
Sat 08:58:02 AM 41.9690 -88.1070 103° East 182 209 3,000 -667 Descending FlightAware ADS-B
Sat 08:58:22 AM 41.9670 -88.0840 97° East 180 207 2,800 -1,000 Descending FlightAware ADS-B
Sat 08:59:02 AM 41.9690 -88.0390 87° East 165 190 2,000 -1,015 Descending FlightAware ADS-B
Sat 08:59:27 AM 41.9690 -88.0160 90° East 148 170 1,700 -840 Descending FlightAware ADS-B
Sat 08:59:52 AM 41.9690 -87.9920 90° East 147 169 1,300 -857 Descending FlightAware ADS-B
Sat 09:00:02 AM 41.9690 -87.9850 90° East 147 169 1,200 -800 Descending FlightAware ADS-B
Sat 09:00:52 AM 41.9690 -87.9380 90° East 143 165 500 -560 Descending FlightAware ADS-B
Sat 09:01:17 AM 41.9690 -87.9190 90° East 143 165 500 -120 Level FlightAware ADS-B
Sat 09:01:42 AM 41.9690 -87.9030 90° East 106 122 400 -240 Descending FlightAware ADS-B

Login

Don't have an account? Register now (free) for customized features, flight alerts, and more!